createdAt,value
2022-08-14T00:01:46.144Z,8.15
2022-08-14T00:04:35.187Z,8.10
2022-08-14T00:07:00.036Z,8.23
2022-08-14T00:09:23.827Z,7.88
2022-08-14T00:11:49.167Z,7.97
2022-08-14T00:14:17.111Z,7.85
2022-08-14T00:16:45.199Z,7.97
2022-08-14T00:19:19.311Z,7.35
2022-08-14T00:21:45.232Z,7.20
2022-08-14T00:24:09.679Z,7.80
2022-08-14T00:26:33.518Z,8.00
2022-08-14T00:28:58.746Z,7.55
2022-08-14T00:31:34.654Z,8.55
2022-08-14T00:34:37.747Z,8.82
2022-08-14T00:36:51.144Z,8.50
2022-08-14T00:39:17.951Z,9.07
2022-08-14T00:41:42.618Z,7.90
2022-08-14T00:44:08.319Z,8.63
2022-08-14T00:46:33.527Z,7.30
2022-08-14T00:48:58.086Z,8.98
2022-08-14T00:51:22.835Z,8.65
2022-08-14T00:53:50.331Z,8.73
2022-08-14T00:56:16.431Z,8.80
2022-08-14T00:58:45.127Z,8.43
2022-08-14T01:01:16.666Z,9.10
2022-08-14T01:03:42.555Z,8.10
2022-08-14T01:06:12.683Z,9.05
2022-08-14T01:08:58.131Z,8.45
2022-08-14T01:11:22.764Z,8.63
2022-08-14T01:13:50.793Z,8.70
2022-08-14T01:16:21.623Z,8.45
2022-08-14T01:19:11.927Z,8.43
2022-08-14T01:21:46.893Z,9.07
2022-08-14T01:24:15.276Z,8.98
2022-08-14T01:26:50.865Z,8.77
2022-08-14T01:29:16.192Z,9.68
2022-08-14T01:32:00.434Z,9.20
2022-08-14T01:35:18.268Z,9.48
2022-08-14T01:37:11.592Z,10.00
2022-08-14T01:39:37.740Z,9.38
2022-08-14T01:42:01.723Z,9.25
2022-08-14T01:44:33.505Z,9.48
2022-08-14T01:47:01.297Z,9.68
2022-08-14T01:49:25.204Z,9.80
2022-08-14T01:51:58.972Z,8.90
2022-08-14T01:54:25.903Z,9.73
2022-08-14T01:57:02.423Z,10.02
2022-08-14T01:59:38.060Z,10.27
2022-08-14T02:02:19.025Z,9.30
2022-08-14T02:04:56.768Z,9.73
2022-08-14T02:07:34.177Z,9.57
2022-08-14T02:10:13.098Z,10.07
2022-08-14T02:12:40.861Z,9.25
2022-08-14T02:15:07.916Z,9.63
2022-08-14T02:17:35.970Z,9.68
2022-08-14T02:20:02.884Z,8.85
2022-08-14T02:22:32.599Z,9.20
2022-08-14T02:24:57.285Z,9.07
2022-08-14T02:28:23.505Z,10.07
2022-08-14T02:30:08.645Z,9.73
2022-08-14T02:32:36.601Z,9.38
2022-08-14T02:35:01.737Z,9.20
2022-08-14T02:37:25.406Z,9.82
2022-08-14T02:40:10.013Z,9.52
2022-08-14T02:42:37.009Z,9.27
2022-08-14T02:45:01.467Z,9.60
2022-08-14T02:47:26.704Z,9.52
2022-08-14T02:49:54.930Z,10.05
2022-08-14T02:52:55.636Z,9.68
2022-08-14T02:55:05.803Z,9.35
2022-08-14T02:57:40.425Z,9.48
2022-08-14T03:00:10.188Z,9.57
2022-08-14T03:02:56.625Z,9.90
2022-08-14T03:05:20.520Z,8.68
2022-08-14T03:07:44.596Z,10.32
2022-08-14T03:10:26.213Z,10.35
2022-08-14T03:12:54.232Z,9.23
2022-08-14T03:15:21.018Z,9.82
2022-08-14T03:17:57.596Z,10.32
2022-08-14T03:20:22.809Z,9.93
2022-08-14T03:22:47.038Z,10.68
2022-08-14T03:25:14.704Z,10.43
2022-08-14T03:27:47.724Z,10.18
2022-08-14T03:30:23.469Z,10.63
2022-08-14T03:32:47.317Z,10.23
2022-08-14T03:35:12.039Z,10.13
2022-08-14T03:39:11.748Z,10.23
2022-08-14T03:40:25.189Z,10.65
2022-08-14T03:42:49.124Z,10.57
2022-08-14T03:45:18.578Z,11.65
2022-08-14T03:48:01.920Z,12.05
2022-08-14T03:50:30.810Z,10.80
2022-08-14T03:52:56.109Z,10.57
2022-08-14T03:55:24.313Z,12.63
2022-08-14T03:57:48.759Z,14.93
2022-08-14T04:00:43.028Z,15.68
2022-08-14T04:03:00.594Z,14.07
2022-08-14T04:05:25.160Z,12.70
2022-08-14T04:07:49.772Z,14.27
2022-08-14T04:10:31.546Z,13.85
2022-08-14T04:13:03.722Z,11.73
2022-08-14T04:15:28.261Z,11.50
2022-08-14T04:17:52.084Z,11.98
2022-08-14T04:20:25.601Z,11.70
2022-08-14T04:22:50.591Z,10.90
2022-08-14T04:25:19.765Z,10.52
2022-08-14T04:28:01.697Z,10.55
2022-08-14T04:30:30.831Z,10.77
2022-08-14T04:33:04.438Z,10.18
2022-08-14T04:35:56.073Z,10.40
2022-08-14T04:38:37.122Z,10.63
2022-08-14T04:41:19.675Z,10.30
2022-08-14T04:43:43.831Z,10.45
2022-08-14T04:46:10.148Z,11.13
2022-08-14T04:48:59.733Z,10.43
2022-08-14T04:51:28.008Z,10.88
2022-08-14T04:53:55.373Z,11.43
2022-08-14T04:56:30.456Z,10.73
2022-08-14T04:59:03.766Z,11.52
2022-08-14T05:01:28.348Z,10.75
2022-08-14T05:03:53.251Z,10.38
2022-08-14T05:06:37.988Z,10.82
2022-08-14T05:09:04.012Z,10.45
2022-08-14T05:11:28.730Z,10.98
2022-08-14T05:14:34.643Z,11.20
2022-08-14T05:16:36.613Z,11.13
2022-08-14T05:19:17.972Z,10.60
2022-08-14T05:21:59.880Z,10.85
2022-08-14T05:24:26.808Z,10.65
2022-08-14T05:26:50.841Z,11.05
2022-08-14T05:29:16.360Z,10.38
2022-08-14T05:31:41.224Z,10.38
2022-08-14T05:34:05.060Z,10.23
2022-08-14T05:36:30.434Z,9.90
2022-08-14T05:38:55.386Z,10.23
2022-08-14T05:41:21.874Z,11.32
2022-08-14T05:43:48.881Z,10.57
2022-08-14T05:46:15.696Z,10.30
2022-08-14T05:48:42.786Z,10.43
2022-08-14T05:51:07.811Z,10.13
2022-08-14T05:53:34.419Z,11.05
2022-08-14T05:55:59.201Z,9.88
2022-08-14T05:58:41.022Z,10.10
2022-08-14T06:01:06.031Z,9.88
2022-08-14T06:03:29.795Z,10.63
2022-08-14T06:05:55.959Z,9.82
2022-08-14T06:08:41.147Z,10.20
2022-08-14T06:11:09.036Z,9.77
2022-08-14T06:13:44.691Z,9.85
2022-08-14T06:16:09.968Z,9.43
2022-08-14T06:18:35.635Z,8.43
2022-08-14T06:20:59.439Z,8.50
2022-08-14T06:23:23.227Z,8.52
2022-08-14T06:25:52.608Z,8.55
2022-08-14T06:28:26.927Z,8.13
2022-08-14T06:30:54.165Z,8.82
2022-08-14T06:33:20.091Z,8.98
2022-08-14T06:35:46.988Z,8.40
2022-08-14T06:38:14.195Z,8.68
2022-08-14T06:40:43.027Z,8.45
2022-08-14T06:43:15.222Z,8.35
2022-08-14T06:45:42.604Z,7.90
2022-08-14T06:48:17.137Z,7.90
2022-08-14T06:50:41.248Z,7.43
2022-08-14T06:53:09.461Z,7.60
2022-08-14T06:55:33.474Z,7.82
2022-08-14T06:57:58.098Z,8.20
2022-08-14T07:00:27.245Z,7.70
2022-08-14T07:03:12.620Z,7.63
2022-08-14T07:05:55.992Z,7.90
2022-08-14T07:08:26.503Z,11.40
2022-08-14T07:10:56.656Z,8.30
2022-08-14T07:13:24.460Z,8.20
2022-08-14T07:15:50.647Z,8.10
2022-08-14T07:18:22.557Z,8.20
2022-08-14T07:20:47.711Z,8.18
2022-08-14T07:23:20.722Z,8.38
2022-08-14T07:25:47.257Z,7.88
2022-08-14T07:28:20.855Z,7.57
2022-08-14T07:30:51.386Z,7.53
2022-08-14T07:33:15.574Z,7.40
2022-08-14T07:35:57.343Z,7.68
2022-08-14T07:38:25.064Z,7.45
2022-08-14T07:40:53.056Z,7.50
2022-08-14T07:43:17.403Z,7.45
2022-08-14T07:45:41.484Z,8.10
2022-08-14T07:48:06.732Z,7.53
2022-08-14T07:50:34.741Z,7.97
2022-08-14T07:53:01.744Z,8.15
2022-08-14T07:55:29.388Z,8.10
2022-08-14T07:57:54.528Z,8.00
2022-08-14T08:00:29.883Z,8.45
2022-08-14T08:02:56.959Z,7.43
2022-08-14T08:05:26.567Z,7.90
2022-08-14T08:07:50.523Z,8.27
2022-08-14T08:11:02.052Z,8.57
2022-08-14T08:13:24.020Z,8.40
2022-08-14T08:15:51.331Z,8.05
2022-08-14T08:18:20.325Z,7.53
2022-08-14T08:20:59.643Z,7.82
2022-08-14T08:23:31.022Z,8.32
2022-08-14T08:26:07.484Z,7.82
2022-08-14T08:28:32.581Z,7.85
2022-08-14T08:31:00.597Z,7.13
2022-08-14T08:33:32.338Z,8.07
2022-08-14T08:36:03.554Z,7.60
2022-08-14T08:39:14.857Z,7.20
2022-08-14T08:41:13.223Z,7.45
2022-08-14T08:43:38.426Z,7.05
2022-08-14T08:46:05.942Z,6.97
2022-08-14T08:48:35.569Z,7.47
2022-08-14T08:51:05.198Z,6.40
2022-08-14T08:53:34.309Z,6.97
2022-08-14T08:55:58.499Z,6.55
2022-08-14T08:58:25.339Z,6.18
2022-08-14T09:00:54.562Z,6.40
2022-08-14T09:03:21.640Z,6.13
2022-08-14T09:05:53.964Z,6.65
2022-08-14T09:08:31.643Z,6.78
2022-08-14T09:10:59.384Z,6.50
2022-08-14T09:13:26.282Z,5.68
2022-08-14T09:15:54.260Z,6.20
2022-08-14T09:18:22.051Z,5.90
2022-08-14T09:20:53.020Z,5.68
2022-08-14T09:23:27.504Z,5.68
2022-08-14T09:26:01.620Z,5.88
2022-08-14T09:28:25.577Z,5.65
2022-08-14T09:30:55.263Z,5.22
2022-08-14T09:33:55.825Z,5.10
2022-08-14T09:36:54.727Z,5.10
2022-08-14T09:39:34.791Z,5.10
2022-08-14T09:42:33.389Z,5.15
2022-08-14T09:45:16.661Z,4.95
2022-08-14T09:47:51.854Z,5.60
2022-08-14T09:50:26.087Z,5.05
2022-08-14T09:52:54.875Z,4.95
2022-08-14T09:55:21.458Z,4.65
2022-08-14T09:57:45.377Z,4.80
2022-08-14T10:00:29.577Z,4.40
2022-08-14T10:02:58.442Z,4.60
2022-08-14T10:05:35.067Z,4.68
2022-08-14T10:08:05.626Z,4.65
2022-08-14T10:10:41.795Z,4.50
2022-08-14T10:13:10.170Z,4.50
2022-08-14T10:15:39.476Z,4.15
2022-08-14T10:18:17.355Z,4.53
2022-08-14T10:20:49.500Z,4.32
2022-08-14T10:23:22.234Z,4.43
2022-08-14T10:25:50.692Z,4.90
2022-08-14T10:28:39.410Z,4.25
2022-08-14T10:30:59.403Z,4.50
2022-08-14T10:33:29.899Z,4.65
2022-08-14T10:35:54.856Z,4.40
2022-08-14T10:38:29.675Z,4.63
2022-08-14T10:40:59.465Z,4.55
2022-08-14T10:43:27.040Z,4.70
2022-08-14T10:46:21.566Z,3.97
2022-08-14T10:49:00.905Z,4.15
2022-08-14T10:51:30.329Z,4.40
2022-08-14T10:54:01.999Z,3.80
2022-08-14T10:56:45.837Z,4.10
2022-08-14T10:59:10.928Z,4.38
2022-08-14T11:01:38.691Z,4.15
2022-08-14T11:04:08.583Z,3.90
2022-08-14T11:06:33.496Z,4.13
2022-08-14T11:08:57.895Z,3.95
2022-08-14T11:11:28.706Z,4.00
2022-08-14T11:13:59.795Z,3.67
2022-08-14T11:16:24.496Z,3.85
2022-08-14T11:18:55.947Z,4.10
2022-08-14T11:21:25.594Z,4.05
2022-08-14T11:23:57.272Z,4.30
2022-08-14T11:26:24.369Z,4.50
2022-08-14T11:28:51.142Z,4.20
2022-08-14T11:31:15.110Z,4.20
2022-08-14T11:33:40.875Z,4.18
2022-08-14T11:36:17.804Z,4.30
2022-08-14T11:38:46.239Z,4.03
2022-08-14T11:41:12.311Z,4.30
2022-08-14T11:43:41.882Z,4.10
2022-08-14T11:46:06.384Z,4.18
2022-08-14T11:49:01.842Z,3.90
2022-08-14T11:51:23.789Z,3.75
2022-08-14T11:53:55.366Z,4.32
2022-08-14T11:56:25.497Z,3.90
2022-08-14T11:58:54.210Z,3.85
2022-08-14T12:01:18.508Z,3.88
2022-08-14T12:03:52.105Z,3.90
2022-08-14T12:06:29.788Z,3.90
2022-08-14T12:09:04.964Z,4.00
2022-08-14T12:11:43.112Z,3.65
2022-08-14T12:14:13.396Z,3.90
2022-08-14T12:17:02.271Z,4.10
2022-08-14T12:19:26.618Z,3.60
2022-08-14T12:21:53.796Z,3.70
2022-08-14T12:24:31.836Z,4.13
2022-08-14T12:27:00.896Z,3.83
2022-08-14T12:29:24.944Z,4.00
2022-08-14T12:32:06.731Z,4.22
2022-08-14T12:34:34.426Z,3.70
2022-08-14T12:37:06.223Z,3.75
2022-08-14T12:39:31.517Z,3.47
2022-08-14T12:42:07.511Z,4.45
2022-08-14T12:44:33.423Z,4.18
2022-08-14T12:47:06.497Z,4.10
2022-08-14T12:49:30.416Z,4.25
2022-08-14T12:51:59.925Z,4.03
2022-08-14T12:54:28.140Z,4.28
2022-08-14T12:57:06.491Z,4.00
2022-08-14T12:59:33.247Z,3.80
2022-08-14T13:02:07.568Z,3.97
2022-08-14T13:04:38.025Z,4.30
2022-08-14T13:07:08.586Z,4.30
2022-08-14T13:09:37.782Z,4.18
2022-08-14T13:12:32.374Z,4.05
2022-08-14T13:14:52.862Z,3.72
2022-08-14T13:17:16.647Z,4.53
2022-08-14T13:19:41.207Z,4.15
2022-08-14T13:22:10.076Z,4.32
2022-08-14T13:24:35.127Z,4.22
2022-08-14T13:27:00.555Z,4.40
2022-08-14T13:29:29.782Z,4.18
2022-08-14T13:31:57.932Z,4.20
2022-08-14T13:34:23.286Z,4.30
2022-08-14T13:36:54.238Z,3.90
2022-08-14T13:39:25.725Z,3.78
2022-08-14T13:41:55.626Z,4.43
2022-08-14T13:44:25.991Z,4.30
2022-08-14T13:46:51.299Z,4.13
2022-08-14T13:49:16.513Z,4.00
2022-08-14T13:51:46.032Z,3.72
2022-08-14T13:54:11.382Z,3.88
2022-08-14T13:56:40.670Z,3.78
2022-08-14T13:59:05.449Z,4.32
2022-08-14T14:01:30.847Z,3.95
2022-08-14T14:03:58.731Z,3.80
2022-08-14T14:06:25.524Z,4.00
2022-08-14T14:08:50.831Z,4.32
2022-08-14T14:11:16.421Z,3.70
2022-08-14T14:13:42.055Z,4.20
2022-08-14T14:16:11.792Z,3.78
2022-08-14T14:18:42.450Z,3.78
2022-08-14T14:21:08.047Z,3.83
2022-08-14T14:23:34.598Z,3.90
2022-08-14T14:25:59.000Z,3.60
2022-08-14T14:28:24.200Z,3.70
2022-08-14T14:30:53.221Z,3.70
2022-08-14T14:33:44.799Z,3.80
2022-08-14T14:36:04.867Z,3.67
2022-08-14T14:38:34.772Z,3.92
2022-08-14T14:41:01.146Z,3.58
2022-08-14T14:43:27.437Z,3.60
2022-08-14T14:45:52.903Z,3.80
2022-08-14T14:48:16.639Z,3.33
2022-08-14T14:50:44.164Z,3.58
2022-08-14T14:53:13.098Z,3.53
2022-08-14T14:55:54.415Z,3.50
2022-08-14T14:58:26.227Z,3.38
2022-08-14T15:00:54.611Z,3.65
2022-08-14T15:03:19.440Z,3.80
2022-08-14T15:05:44.425Z,4.53
2022-08-14T15:08:08.192Z,4.10
2022-08-14T15:10:42.407Z,3.90
2022-08-14T15:13:10.671Z,3.90
2022-08-14T15:15:36.899Z,3.60
2022-08-14T15:18:01.662Z,3.75
2022-08-14T15:20:31.051Z,3.53
2022-08-14T15:22:55.355Z,3.90
2022-08-14T15:25:19.070Z,3.70
2022-08-14T15:27:45.644Z,4.00
2022-08-14T15:30:14.364Z,3.75
2022-08-14T15:32:48.244Z,3.85
2022-08-14T15:35:12.095Z,3.60
2022-08-14T15:37:36.521Z,4.10
2022-08-14T15:40:09.835Z,4.53
2022-08-14T15:42:38.046Z,4.18
2022-08-14T15:45:06.448Z,3.72
2022-08-14T15:47:33.092Z,4.00
2022-08-14T15:49:56.971Z,3.92
2022-08-14T15:52:32.035Z,3.72
2022-08-14T15:54:57.752Z,4.00
2022-08-14T15:57:22.439Z,3.80
2022-08-14T16:00:00.690Z,3.40
2022-08-14T16:02:28.059Z,3.70
2022-08-14T16:04:51.969Z,3.67
2022-08-14T16:07:15.853Z,3.90
2022-08-14T16:09:40.838Z,3.83
2022-08-14T16:12:05.751Z,3.70
2022-08-14T16:14:30.898Z,3.80
2022-08-14T16:17:00.199Z,3.85
2022-08-14T16:19:27.739Z,3.78
2022-08-14T16:22:02.164Z,3.78
2022-08-14T16:25:02.193Z,3.70
2022-08-14T16:27:39.244Z,3.88
2022-08-14T16:30:10.868Z,4.05
2022-08-14T16:32:35.995Z,3.55
2022-08-14T16:35:19.976Z,3.80
2022-08-14T16:37:43.845Z,3.42
2022-08-14T16:40:11.006Z,3.70
2022-08-14T16:42:38.863Z,3.67
2022-08-14T16:45:19.648Z,3.47
2022-08-14T16:47:47.832Z,3.53
2022-08-14T16:50:14.475Z,3.53
2022-08-14T16:53:00.918Z,3.42
2022-08-14T16:55:30.110Z,3.08
2022-08-14T16:57:58.568Z,3.42
2022-08-14T17:00:32.614Z,3.47
2022-08-14T17:03:05.155Z,3.20
2022-08-14T17:05:39.388Z,3.80
2022-08-14T17:08:31.643Z,3.50
2022-08-14T17:11:10.760Z,3.15
2022-08-14T17:13:59.895Z,3.72
2022-08-14T17:16:25.365Z,3.42
2022-08-14T17:18:55.389Z,3.67
2022-08-14T17:21:27.283Z,3.33
2022-08-14T17:24:00.737Z,3.33
2022-08-14T17:26:36.079Z,3.20
2022-08-14T17:29:08.276Z,3.50
2022-08-14T17:31:59.014Z,3.25
2022-08-14T17:34:18.701Z,3.92
2022-08-14T17:36:44.428Z,3.80
2022-08-14T17:39:15.366Z,3.72
2022-08-14T17:41:43.347Z,3.55
2022-08-14T17:44:34.446Z,3.70
2022-08-14T17:47:08.388Z,3.55
2022-08-14T17:49:35.340Z,3.70
2022-08-14T17:52:17.064Z,3.67
2022-08-14T17:54:52.957Z,3.42
2022-08-14T17:57:28.384Z,3.65
2022-08-14T17:59:55.415Z,3.65
2022-08-14T18:02:23.778Z,3.70
2022-08-14T18:04:58.504Z,3.75
2022-08-14T18:07:50.635Z,3.80
2022-08-14T18:10:52.059Z,4.18
2022-08-14T18:12:54.219Z,3.95
2022-08-14T18:15:20.340Z,4.18
2022-08-14T18:17:53.262Z,4.50
2022-08-14T18:21:42.398Z,4.90
2022-08-14T18:23:02.386Z,4.25
2022-08-14T18:25:34.151Z,4.82
2022-08-14T18:27:59.260Z,4.60
2022-08-14T18:30:32.013Z,4.50
2022-08-14T18:33:17.797Z,4.95
2022-08-14T18:35:59.757Z,4.60
2022-08-14T18:38:45.822Z,4.43
2022-08-14T18:41:37.868Z,4.93
2022-08-14T18:44:01.907Z,5.45
2022-08-14T18:46:59.796Z,5.45
2022-08-14T18:49:16.620Z,6.00
2022-08-14T18:51:45.120Z,5.93
2022-08-14T18:54:29.676Z,5.82
2022-08-14T18:57:03.412Z,6.30
2022-08-14T18:59:36.165Z,6.22
2022-08-14T19:02:43.049Z,6.03
2022-08-14T19:05:09.406Z,6.10
2022-08-14T19:07:34.144Z,6.00
2022-08-14T19:10:00.700Z,6.28
2022-08-14T19:13:11.527Z,6.15
2022-08-14T19:15:40.053Z,6.30
2022-08-14T19:18:26.471Z,6.60
2022-08-14T19:20:55.495Z,6.30
2022-08-14T19:23:42.541Z,6.13
2022-08-14T19:26:35.874Z,5.88
2022-08-14T19:29:38.206Z,6.50
2022-08-14T19:32:06.692Z,6.50
2022-08-14T19:34:52.163Z,6.32
2022-08-14T19:37:48.428Z,6.25
2022-08-14T19:40:33.293Z,6.57
2022-08-14T19:42:59.370Z,6.57
2022-08-14T19:45:25.295Z,6.20
2022-08-14T19:47:50.060Z,6.90
2022-08-14T19:50:37.946Z,6.63
2022-08-14T19:53:11.095Z,6.38
2022-08-14T19:55:35.972Z,6.57
2022-08-14T19:58:00.447Z,6.80
2022-08-14T20:00:28.364Z,6.38
2022-08-14T20:03:10.548Z,6.70
2022-08-14T20:05:42.561Z,6.88
2022-08-14T20:10:58.535Z,6.53
2022-08-14T20:11:06.626Z,6.53
2022-08-14T20:13:38.677Z,6.70
2022-08-14T20:16:21.222Z,6.68
2022-08-14T20:18:57.395Z,6.60
2022-08-14T20:21:34.140Z,7.15
2022-08-14T20:24:30.402Z,7.32
2022-08-14T20:27:33.663Z,7.07
2022-08-14T20:30:29.481Z,7.32
2022-08-14T20:32:58.288Z,7.03
2022-08-14T20:35:35.531Z,6.57
2022-08-14T20:38:31.132Z,7.47
2022-08-14T20:40:52.180Z,7.57
2022-08-14T20:43:39.616Z,7.28
2022-08-14T20:46:13.080Z,7.45
2022-08-14T20:48:53.096Z,7.28
2022-08-14T20:51:25.200Z,7.68
2022-08-14T20:53:58.177Z,7.28
2022-08-14T20:56:30.142Z,7.63
2022-08-14T20:58:56.933Z,7.18
2022-08-14T21:01:38.591Z,7.50
2022-08-14T21:04:12.096Z,7.13
2022-08-14T21:07:23.585Z,7.55
2022-08-14T21:10:05.327Z,7.68
2022-08-14T21:12:34.085Z,7.53
2022-08-14T21:14:54.692Z,7.45
2022-08-14T21:17:23.623Z,8.18
2022-08-14T21:19:50.576Z,7.88
2022-08-14T21:22:14.472Z,7.78
2022-08-14T21:24:39.820Z,8.48
2022-08-14T21:27:20.195Z,8.30
2022-08-14T21:29:53.945Z,8.10
2022-08-14T21:32:33.914Z,8.40
2022-08-14T21:35:02.082Z,8.38
2022-08-14T21:37:32.167Z,8.23
2022-08-14T21:39:58.550Z,8.65
2022-08-14T21:42:22.391Z,7.90
2022-08-14T21:44:53.417Z,7.55
2022-08-14T21:47:17.496Z,7.97
2022-08-14T21:49:48.191Z,7.80
2022-08-14T21:52:49.409Z,7.78
2022-08-14T21:55:12.286Z,9.27
2022-08-14T21:58:44.691Z,9.43
2022-08-14T22:00:35.151Z,9.40
2022-08-14T22:03:00.539Z,9.00
2022-08-14T22:05:25.632Z,8.00
2022-08-14T22:07:54.528Z,8.57
2022-08-14T22:10:22.877Z,8.40
2022-08-14T22:13:00.644Z,8.15
2022-08-14T22:15:25.663Z,8.32
2022-08-14T22:17:54.573Z,8.63
2022-08-14T22:20:20.522Z,8.75
2022-08-14T22:22:45.640Z,9.10
2022-08-14T22:25:17.357Z,9.02
2022-08-14T22:27:55.794Z,9.00
2022-08-14T22:30:20.804Z,8.63
2022-08-14T22:32:56.854Z,8.68
2022-08-14T22:35:23.212Z,8.68
2022-08-14T22:37:47.334Z,8.70
2022-08-14T22:40:59.911Z,9.00
2022-08-14T22:43:19.667Z,9.50
2022-08-14T22:45:55.702Z,8.85
2022-08-14T22:48:20.020Z,9.20
2022-08-14T22:50:53.123Z,9.98
2022-08-14T22:53:17.516Z,9.65
2022-08-14T22:55:44.805Z,8.85
2022-08-14T22:58:10.941Z,8.85
2022-08-14T23:00:43.947Z,8.85
2022-08-14T23:03:17.484Z,8.95
2022-08-14T23:05:51.757Z,8.90
2022-08-14T23:08:56.533Z,9.10
2022-08-14T23:11:02.967Z,9.57
2022-08-14T23:13:26.876Z,9.90
2022-08-14T23:15:55.024Z,9.15
2022-08-14T23:18:22.277Z,10.23
2022-08-14T23:20:47.556Z,9.25
2022-08-14T23:23:22.260Z,9.52
2022-08-14T23:26:00.334Z,9.40
2022-08-14T23:28:34.964Z,9.98
2022-08-14T23:31:14.036Z,9.60
2022-08-14T23:33:46.069Z,10.45
2022-08-14T23:36:31.678Z,10.90
2022-08-14T23:39:10.097Z,10.60
2022-08-14T23:41:46.255Z,10.20
2022-08-14T23:44:20.428Z,10.45
2022-08-14T23:46:45.503Z,10.43
2022-08-14T23:49:09.447Z,10.85
2022-08-14T23:51:38.692Z,11.63
2022-08-14T23:54:02.617Z,11.52
2022-08-14T23:56:33.923Z,10.52
2022-08-14T23:58:58.884Z,10.82
